Time;durP1;ratioP1;P1;durP2;ratioP2;P2;SDS_P1;SDS_P2;PMS_P1;PMS_P2;Temp;Humidity;BMP_temperature;BMP_pressure;BME280_temperature;BME280_humidity;BME280_pressure;Samples;Min_cycle;Max_cycle;Signal;HPM_P1;HPM_P2
2023/09/25 00:00:07;;;;;;;11.20;6.22;;;;;;;19.03;100.00;93114.47;5102509;27;20048;-79
2023/09/25 00:02:34;;;;;;;12.10;6.03;;;;;;;19.01;100.00;93099.09;5103322;27;20142;-80
2023/09/25 00:05:01;;;;;;;12.27;6.65;;;;;;;19.02;100.00;93107.69;5095366;27;20073;-79
2023/09/25 00:07:28;;;;;;;12.88;5.72;;;;;;;19.03;100.00;93112.66;5095700;27;20047;-79
2023/09/25 00:09:54;;;;;;;15.43;5.97;;;;;;;18.95;100.00;93098.34;5094657;27;20039;-79
2023/09/25 00:12:21;;;;;;;17.17;6.38;;;;;;;19.07;100.00;93103.28;5094999;27;20047;-79
2023/09/25 00:14:48;;;;;;;11.90;6.65;;;;;;;19.09;100.00;93100.41;5109790;27;20522;-79
2023/09/25 00:17:16;;;;;;;11.13;7.00;;;;;;;19.03;100.00;93097.03;5110185;27;20046;-79
2023/09/25 00:19:43;;;;;;;10.07;5.45;;;;;;;19.03;100.00;93098.84;5112082;27;20047;-79
2023/09/25 00:22:10;;;;;;;16.77;6.85;;;;;;;19.03;100.00;93098.84;5110193;27;20073;-78
2023/09/25 00:24:37;;;;;;;10.27;6.50;;;;;;;19.00;100.00;93087.13;5109785;27;20043;-78
2023/09/25 00:27:04;;;;;;;13.07;6.25;;;;;;;19.08;100.00;93104.81;5111979;27;20055;-78
2023/09/25 00:29:31;;;;;;;11.82;6.38;;;;;;;19.09;100.00;93106.41;5109739;27;20055;-78
2023/09/25 00:31:58;;;;;;;9.38;5.90;;;;;;;19.08;100.00;93104.06;5110049;27;20043;-78
2023/09/25 00:34:26;;;;;;;10.35;5.63;;;;;;;19.13;100.00;93106.66;5109978;27;20051;-78
2023/09/25 00:36:53;;;;;;;10.90;5.90;;;;;;;19.08;100.00;93097.00;5110252;27;20418;-79
2023/09/25 00:39:19;;;;;;;12.27;6.30;;;;;;;19.15;100.00;93101.16;5128788;27;20043;-78
2023/09/25 00:41:46;;;;;;;11.25;6.07;;;;;;;19.16;100.00;93100.13;5128485;27;20780;-78
2023/09/25 00:44:13;;;;;;;13.30;5.85;;;;;;;19.12;100.00;93099.88;5113310;27;20047;-78
2023/09/25 00:46:40;;;;;;;13.57;6.70;;;;;;;19.15;100.00;93098.56;5109953;27;20061;-78
2023/09/25 00:49:07;;;;;;;12.30;5.90;;;;;;;19.16;100.00;93090.47;5109165;27;20435;-78
2023/09/25 00:51:36;;;;;;;12.23;5.57;;;;;;;19.14;100.00;93086.59;5109729;27;20077;-79
2023/09/25 00:54:04;;;;;;;10.40;6.15;;;;;;;19.09;100.00;93092.59;5109907;27;20051;-79
2023/09/25 00:56:31;;;;;;;12.32;6.15;;;;;;;19.07;100.00;93092.09;5109517;27;20059;-78
2023/09/25 00:58:58;;;;;;;11.65;5.82;;;;;;;19.07;100.00;93098.06;5110296;27;20047;-78
2023/09/25 01:01:25;;;;;;;12.63;6.25;;;;;;;19.06;100.00;93088.69;5112800;27;20052;-78
2023/09/25 01:03:52;;;;;;;12.70;5.40;;;;;;;18.88;100.00;93069.19;5109047;27;20503;-78
2023/09/25 01:06:19;;;;;;;11.20;6.00;;;;;;;18.98;100.00;93091.03;5118763;27;20047;-77
2023/09/25 01:08:47;;;;;;;11.68;5.70;;;;;;;18.94;100.00;93083.75;5109615;27;20475;-77
2023/09/25 01:11:14;;;;;;;9.50;5.97;;;;;;;18.90;100.00;93089.75;5109538;27;20043;-78
2023/09/25 01:13:41;;;;;;;9.90;5.47;;;;;;;18.89;100.00;93080.41;5113807;27;20054;-78
2023/09/25 01:16:08;;;;;;;9.25;5.70;;;;;;;18.88;100.00;93081.44;5108553;27;20047;-78
2023/09/25 01:18:35;;;;;;;9.00;5.68;;;;;;;18.82;100.00;93084.06;5111300;27;20193;-78
2023/09/25 01:21:03;;;;;;;10.98;6.20;;;;;;;18.79;100.00;93087.19;5108830;27;20047;-78
2023/09/25 01:23:32;;;;;;;11.75;6.10;;;;;;;18.81;100.00;93086.91;5108837;27;20047;-77
2023/09/25 01:25:59;;;;;;;11.48;5.78;;;;;;;18.78;100.00;93079.63;5108762;27;20059;-78
2023/09/25 01:28:26;;;;;;;9.30;5.45;;;;;;;18.75;100.00;93077.56;5110149;27;20835;-77
2023/09/25 01:30:54;;;;;;;12.88;6.07;;;;;;;18.73;100.00;93074.44;5110760;27;20055;-78
2023/09/25 01:33:21;;;;;;;9.82;5.57;;;;;;;18.61;100.00;93049.47;5108004;28;20870;-78
2023/09/25 01:35:47;;;;;;;11.63;5.80;;;;;;;18.69;100.00;93066.38;5122582;27;20056;-77
2023/09/25 01:38:16;;;;;;;11.23;6.18;;;;;;;18.67;100.00;93071.88;5115075;27;20518;-77
2023/09/25 01:40:45;;;;;;;11.32;6.40;;;;;;;18.66;100.00;93078.09;5108735;27;20052;-77
2023/09/25 01:43:12;;;;;;;9.70;6.43;;;;;;;18.66;100.00;93072.88;5110007;27;20052;-78
2023/09/25 01:45:38;;;;;;;10.70;7.00;;;;;;;18.64;100.00;93067.19;5108357;27;20048;-77
2023/09/25 01:48:06;;;;;;;13.23;5.78;;;;;;;18.64;100.00;93079.41;5108298;27;20499;-77
2023/09/25 01:50:34;;;;;;;14.27;6.78;;;;;;;18.62;100.00;93079.69;5112671;27;20078;-77
2023/09/25 01:53:03;;;;;;;11.68;5.80;;;;;;;18.61;100.00;93074.72;5107992;27;20043;-78
2023/09/25 01:55:35;;;;;;;9.77;5.93;;;;;;;18.41;100.00;93048.50;5110442;27;20055;-77
2023/09/25 01:58:04;;;;;;;16.50;6.53;;;;;;;18.57;100.00;93069.28;5109587;27;20035;-77
2023/09/25 02:00:31;;;;;;;12.32;7.07;;;;;;;18.47;100.00;93059.66;5110260;27;20050;-77
2023/09/25 02:02:57;;;;;;;13.02;6.20;;;;;;;18.55;100.00;93068.75;5126854;27;20058;-78
2023/09/25 02:05:24;;;;;;;10.35;6.13;;;;;;;18.49;100.00;93059.41;5122897;27;20059;-78
2023/09/25 02:07:51;;;;;;;11.98;6.35;;;;;;;18.55;100.00;93074.75;5115992;27;20043;-78
2023/09/25 02:10:18;;;;;;;12.02;6.38;;;;;;;18.55;100.00;93066.94;5107929;27;20050;-78
2023/09/25 02:12:45;;;;;;;11.50;6.63;;;;;;;18.47;100.00;93069.28;5107827;28;20048;-77
2023/09/25 02:15:13;;;;;;;12.98;6.55;;;;;;;18.54;100.00;93075.78;5108090;27;20055;-79
2023/09/25 02:17:43;;;;;;;12.63;6.60;;;;;;;18.42;100.00;93067.47;5111924;27;20051;-85
2023/09/25 02:20:16;;;;;;;11.50;7.00;;;;;;;18.54;100.00;93078.38;5108210;28;20039;-80
2023/09/25 02:22:43;;;;;;;10.70;6.50;;;;;;;18.52;100.00;93079.69;5108043;28;20849;-81
2023/09/25 02:25:11;;;;;;;14.80;6.45;;;;;;;18.52;100.00;93077.09;5107762;28;20040;-80
2023/09/25 02:27:38;;;;;;;11.18;6.35;;;;;;;18.45;100.00;93069.53;5107702;28;20078;-79
2023/09/25 02:30:06;;;;;;;14.65;6.65;;;;;;;18.54;100.00;93075.78;5107647;28;20048;-80
2023/09/25 02:32:34;;;;;;;13.05;6.18;;;;;;;18.58;100.00;93077.84;5111809;28;20047;-82
2023/09/25 02:35:01;;;;;;;12.20;7.15;;;;;;;18.55;100.00;93087.75;5108012;28;20414;-81
2023/09/25 02:37:30;;;;;;;14.18;6.90;;;;;;;18.54;100.00;93088.00;5118514;28;20522;-81
2023/09/25 02:39:56;;;;;;;14.52;6.60;;;;;;;18.56;100.00;93091.09;5107764;28;20129;-81
2023/09/25 02:42:23;;;;;;;11.52;7.35;;;;;;;18.58;100.00;93096.06;5107859;28;20407;-81
2023/09/25 02:44:51;;;;;;;16.60;7.40;;;;;;;18.54;100.00;93088.00;5108049;28;20043;-81
2023/09/25 02:47:18;;;;;;;10.57;6.55;;;;;;;18.52;100.00;93093.47;5108794;28;20050;-81
2023/09/25 02:49:46;;;;;;;10.80;6.90;;;;;;;18.58;100.00;93103.84;5107716;28;20052;-82
2023/09/25 02:52:13;;;;;;;13.77;6.80;;;;;;;18.54;100.00;93103.59;5107905;28;20423;-81
2023/09/25 02:54:40;;;;;;;13.00;6.63;;;;;;;18.49;100.00;93095.81;5107480;28;20045;-80
2023/09/25 02:57:07;;;;;;;8.63;6.18;;;;;;;18.55;100.00;93107.75;5107505;28;20514;-80
2023/09/25 02:59:34;;;;;;;13.82;7.05;;;;;;;18.48;100.00;93102.84;5106941;28;20047;-80
2023/09/25 03:02:00;;;;;;;11.30;6.80;;;;;;;18.48;100.00;93109.84;5109672;28;20039;-82
2023/09/25 03:04:27;;;;;;;14.15;6.95;;;;;;;18.45;100.00;93118.16;5109449;28;20043;-82
2023/09/25 03:06:57;;;;;;;10.82;6.20;;;;;;;18.25;100.00;93091.94;5114190;27;20614;-80
2023/09/25 03:09:24;;;;;;;11.93;6.25;;;;;;;18.44;100.00;93122.59;5119446;27;20039;-80
2023/09/25 03:11:51;;;;;;;13.77;7.07;;;;;;;18.45;100.00;93123.38;5110801;28;20061;-80
2023/09/25 03:14:18;;;;;;;10.10;6.50;;;;;;;18.12;100.00;93110.63;5112957;27;20054;-82
2023/09/25 03:16:46;;;;;;;12.52;7.47;;;;;;;18.11;100.00;93122.06;5111548;27;20062;-82
2023/09/25 03:19:13;;;;;;;13.43;7.68;;;;;;;18.08;100.00;93130.38;5111187;27;20102;-82
2023/09/25 03:21:41;;;;;;;10.75;6.85;;;;;;;18.03;100.00;93137.13;5119827;27;20045;-79
2023/09/25 03:24:10;;;;;;;13.45;6.78;;;;;;;18.07;100.00;93140.00;5120560;27;20092;-81
2023/09/25 03:26:37;;;;;;;15.48;8.13;;;;;;;17.98;100.00;93128.53;5111328;27;20069;-80
2023/09/25 03:29:06;;;;;;;16.02;7.93;;;;;;;18.09;100.00;93143.13;5112309;27;20075;-80
2023/09/25 03:31:33;;;;;;;17.80;8.27;;;;;;;18.12;100.00;93149.63;5115867;27;20059;-80
2023/09/25 03:34:00;;;;;;;16.52;8.30;;;;;;;18.08;100.00;93145.97;5110579;27;20044;-78
2023/09/25 03:36:27;;;;;;;22.30;9.93;;;;;;;18.12;100.00;93149.63;5111065;27;20059;-77
2023/09/25 03:38:54;;;;;;;15.13;8.00;;;;;;;18.08;100.00;93130.38;5113582;27;20092;-77
2023/09/25 03:41:22;;;;;;;18.20;8.68;;;;;;;18.13;100.00;93136.38;5110839;27;20048;-77
2023/09/25 03:43:49;;;;;;;20.48;8.38;;;;;;;18.22;100.00;93154.84;5112693;27;20048;-77
2023/09/25 03:46:16;;;;;;;20.58;8.70;;;;;;;18.20;100.00;93137.94;5110924;27;20058;-77
2023/09/25 03:48:43;;;;;;;19.73;8.10;;;;;;;18.33;100.00;93157.44;5116607;27;20043;-78
2023/09/25 03:51:10;;;;;;;15.02;7.78;;;;;;;18.32;100.00;93155.91;5115793;27;20047;-78
2023/09/25 03:53:37;;;;;;;15.93;8.30;;;;;;;18.31;100.00;93160.31;5116234;27;20054;-78
2023/09/25 03:56:04;;;;;;;17.00;8.18;;;;;;;18.18;100.00;93156.38;5115520;27;20043;-77
2023/09/25 03:58:32;;;;;;;14.90;8.10;;;;;;;18.24;100.00;93157.19;5124987;27;20051;-79
2023/09/25 04:01:00;;;;;;;16.65;8.15;;;;;;;18.26;100.00;93158.50;5113178;27;20058;-80
2023/09/25 04:03:27;;;;;;;16.80;8.25;;;;;;;18.29;100.00;93155.34;5112766;27;20096;-80
2023/09/25 04:05:54;;;;;;;17.13;8.82;;;;;;;18.25;100.00;93156.94;5115569;27;20040;-80
2023/09/25 04:08:20;;;;;;;18.92;8.07;;;;;;;18.22;100.00;93149.63;5114611;27;20058;-80
2023/09/25 04:10:47;;;;;;;19.35;9.80;;;;;;;18.19;100.00;93141.56;5119686;27;20392;-79
2023/09/25 04:13:16;;;;;;;24.35;12.40;;;;;;;18.16;100.00;93137.69;5121154;27;20074;-79
2023/09/25 04:15:44;;;;;;;20.50;10.27;;;;;;;18.24;100.00;93150.16;5125296;27;20066;-79
2023/09/25 04:18:12;;;;;;;25.10;13.65;;;;;;;18.28;100.00;93148.59;5112053;27;20043;-78
2023/09/25 04:20:39;;;;;;;19.65;9.18;;;;;;;17.98;100.00;93120.72;5123963;27;20084;-78
2023/09/25 04:23:06;;;;;;;25.88;10.88;;;;;;;17.96;100.00;93164.38;5122516;27;20047;-81
2023/09/25 04:25:33;;;;;;;17.73;8.93;;;;;;;17.97;100.00;93152.94;5116908;27;20047;-78
2023/09/25 04:28:00;;;;;;;19.13;9.95;;;;;;;17.98;100.00;93160.50;5126149;27;20051;-80
2023/09/25 04:30:27;;;;;;;16.23;9.63;;;;;;;18.03;100.00;93165.72;5121539;27;20040;-79
2023/09/25 04:32:56;;;;;;;19.35;10.63;;;;;;;17.90;100.00;93145.38;5110047;27;20055;-79
2023/09/25 04:35:24;;;;;;;21.83;9.35;;;;;;;17.93;100.00;93133.69;5112340;27;20060;-80
2023/09/25 04:37:51;;;;;;;16.25;9.00;;;;;;;18.11;100.00;93163.66;5115139;27;20131;-81
2023/09/25 04:40:30;;;;;;;17.42;9.32;;;;;;;18.11;100.00;93163.66;5113305;27;20047;-80
2023/09/25 04:42:58;;;;;;;19.05;8.75;;;;;;;18.19;100.00;93167.56;5116966;27;20126;-80
2023/09/25 04:45:25;;;;;;;32.75;15.68;;;;;;;18.14;100.00;93163.91;5123202;27;20532;-81
2023/09/25 04:47:52;;;;;;;39.33;20.33;;;;;;;18.15;100.00;93152.47;5123774;27;20078;-81
2023/09/25 04:50:21;;;;;;;23.75;13.30;;;;;;;18.18;100.00;93155.63;5122283;27;20100;-82
2023/09/25 04:52:49;;;;;;;24.35;11.82;;;;;;;18.23;100.00;93153.03;5116946;27;20085;-80
2023/09/25 04:55:16;;;;;;;25.63;11.70;;;;;;;18.39;100.00;93166.81;5115147;27;20889;-80
2023/09/25 04:57:46;;;;;;;25.30;12.13;;;;;;;18.42;100.00;93164.47;5113809;27;20050;-81
2023/09/25 05:00:16;;;;;;;22.00;10.73;;;;;;;18.46;100.00;93166.56;5114245;27;20044;-80
2023/09/25 05:02:45;;;;;;;23.80;13.05;;;;;;;18.38;100.00;93149.66;5115037;27;20047;-80
2023/09/25 05:05:12;;;;;;;25.23;12.23;;;;;;;18.38;100.00;93150.41;5111190;27;20079;-80
2023/09/25 05:07:42;;;;;;;32.20;15.88;;;;;;;18.47;100.00;93163.69;5111624;27;20052;-79
2023/09/25 05:10:11;;;;;;;24.42;14.55;;;;;;;18.41;100.00;93142.09;5109762;27;20503;-79
2023/09/25 05:12:38;;;;;;;29.40;13.65;;;;;;;18.63;100.00;93169.69;5111039;27;20043;-79
2023/09/25 05:15:07;;;;;;;26.05;12.48;;;;;;;18.68;100.00;93167.09;5108712;27;20087;-79
2023/09/25 05:17:34;;;;;;;21.55;10.93;;;;;;;18.75;100.00;93173.84;5110559;27;20047;-79
2023/09/25 05:20:03;;;;;;;27.45;10.77;;;;;;;18.78;100.00;93181.09;5108885;27;20059;-77
2023/09/25 05:22:30;;;;;;;20.75;10.15;;;;;;;18.81;100.00;93185.81;5108954;27;20127;-77
2023/09/25 05:24:58;;;;;;;15.95;9.20;;;;;;;18.79;100.00;93167.84;5120146;27;20044;-77
2023/09/25 05:27:25;;;;;;;19.40;8.50;;;;;;;18.85;100.00;93178.25;5107708;27;20043;-77
2023/09/25 05:29:52;;;;;;;14.82;8.35;;;;;;;18.88;100.00;93188.91;5108303;27;20058;-77
2023/09/25 05:32:18;;;;;;;16.83;8.40;;;;;;;18.88;100.00;93188.16;5108768;27;20050;-78
2023/09/25 05:34:45;;;;;;;17.00;8.73;;;;;;;18.84;100.00;93190.47;5111135;27;20055;-78
2023/09/25 05:37:12;;;;;;;18.70;11.00;;;;;;;18.81;100.00;93185.81;5109869;27;20052;-78
2023/09/25 05:39:39;;;;;;;22.65;12.13;;;;;;;18.75;100.00;93186.84;5108943;27;20054;-77
2023/09/25 05:42:07;;;;;;;19.15;12.63;;;;;;;18.62;100.00;93191.53;5110579;27;20499;-77
2023/09/25 05:44:34;;;;;;;17.42;12.50;;;;;;;18.67;100.00;93198.56;5108900;27;20057;-77
2023/09/25 05:47:02;;;;;;;23.83;14.40;;;;;;;18.43;100.00;93192.03;5108608;27;20093;-79
2023/09/25 05:49:29;;;;;;;18.63;12.63;;;;;;;18.28;100.00;93182.41;5110377;27;20044;-77
2023/09/25 05:51:56;;;;;;;21.33;13.80;;;;;;;18.13;100.00;93184.97;5108593;27;20075;-77
2023/09/25 05:54:23;;;;;;;21.52;14.63;;;;;;;17.85;100.00;93181.75;5109659;27;20050;-78
2023/09/25 05:56:49;;;;;;;20.67;13.88;;;;;;;17.70;100.00;93167.69;5108724;27;20062;-79
2023/09/25 05:59:18;;;;;;;21.25;14.32;;;;;;;17.64;100.00;93184.31;5108677;27;20369;-78
2023/09/25 06:01:45;;;;;;;24.38;15.25;;;;;;;17.63;100.00;93183.50;5117050;27;20957;-78
2023/09/25 06:04:12;;;;;;;22.83;13.93;;;;;;;17.71;100.00;93189.25;5109108;27;20052;-78
2023/09/25 06:06:39;;;;;;;24.63;15.18;;;;;;;17.67;100.00;93175.97;5109665;27;20043;-79
2023/09/25 06:09:15;;;;;;;22.80;13.85;;;;;;;17.77;100.00;93196.00;5110991;27;20050;-79
2023/09/25 06:11:43;;;;;;;21.95;14.57;;;;;;;17.82;100.00;93185.63;5108296;27;20096;-79
2023/09/25 06:14:10;;;;;;;22.80;15.38;;;;;;;17.86;100.00;93180.72;5108561;28;20124;-79
2023/09/25 06:16:40;;;;;;;23.73;15.77;;;;;;;17.91;100.00;93180.72;5119169;27;20502;-78
2023/09/25 06:19:08;;;;;;;24.13;15.77;;;;;;;18.14;100.00;93183.94;5120490;27;20149;-78
2023/09/25 06:21:35;;;;;;;22.20;14.55;;;;;;;18.26;100.00;93179.28;5107138;28;20134;-78
2023/09/25 06:24:04;;;;;;;19.13;12.90;;;;;;;18.35;100.00;93183.97;5108352;27;20133;-80
2023/09/25 06:26:31;;;;;;;21.67;14.18;;;;;;;18.44;100.00;93177.22;5115814;27;20062;-79
2023/09/25 06:28:58;;;;;;;22.42;14.30;;;;;;;18.37;100.00;93181.91;5124531;27;20039;-79
2023/09/25 06:31:25;;;;;;;19.55;14.02;;;;;;;18.54;100.00;93185.03;5107693;28;20092;-80
2023/09/25 06:33:54;;;;;;;18.52;12.30;;;;;;;18.70;100.00;93188.41;5110455;28;20043;-78
2023/09/25 06:36:21;;;;;;;20.50;12.65;;;;;;;18.89;100.00;93190.47;5111718;28;20146;-78
2023/09/25 06:38:48;;;;;;;17.67;12.40;;;;;;;18.99;100.00;93188.91;5113781;27;20044;-79
2023/09/25 06:41:15;;;;;;;20.67;12.93;;;;;;;19.22;100.00;93214.41;5115038;27;20062;-78
2023/09/25 06:43:41;;;;;;;17.52;11.70;;;;;;;19.24;100.00;93206.34;5122341;27;20050;-78
2023/09/25 06:46:08;;;;;;;17.23;12.18;;;;;;;19.43;100.00;93198.75;5117097;27;20411;-78
2023/09/25 06:48:35;;;;;;;19.27;11.88;;;;;;;19.50;100.00;93191.41;5114799;27;20052;-78
2023/09/25 06:51:03;;;;;;;16.33;10.82;;;;;;;19.71;100.00;93220.00;5122481;27;20039;-78
2023/09/25 06:53:30;;;;;;;19.85;11.82;;;;;;;19.71;100.00;93209.59;5124475;27;20402;-78
2023/09/25 06:55:58;;;;;;;18.08;10.40;;;;;;;19.96;100.00;93225.41;5115063;27;20056;-77
2023/09/25 06:58:24;;;;;;;18.27;10.40;;;;;;;20.09;100.00;93230.03;5117750;27;20054;-77
2023/09/25 07:00:51;;;;;;;21.20;11.63;;;;;;;20.16;99.98;93224.53;5120186;27;20044;-78
2023/09/25 07:03:18;;;;;;;17.27;10.90;;;;;;;20.12;100.00;93218.28;5130865;27;20055;-77
2023/09/25 07:05:45;;;;;;;17.17;11.15;;;;;;;20.25;99.32;93224.75;5126735;27;20051;-78
2023/09/25 07:08:14;;;;;;;17.38;11.13;;;;;;;20.26;98.19;93221.88;5119020;27;20044;-78
2023/09/25 07:10:45;;;;;;;15.07;10.50;;;;;;;20.54;97.27;93227.44;5124651;27;20047;-77
2023/09/25 07:13:12;;;;;;;14.40;9.57;;;;;;;20.68;95.61;93225.00;5126461;27;20453;-78
2023/09/25 07:15:40;;;;;;;14.30;10.32;;;;;;;20.56;94.98;93224.56;5131945;27;20055;-76
2023/09/25 07:18:07;;;;;;;15.50;9.57;;;;;;;20.61;94.59;93228.97;5125700;27;20055;-79
2023/09/25 07:20:33;;;;;;;15.90;10.52;;;;;;;20.85;94.65;93236.91;5118474;27;20060;-77
2023/09/25 07:23:00;;;;;;;14.73;10.45;;;;;;;20.76;93.47;93228.88;5114867;27;20454;-78
2023/09/25 07:25:29;;;;;;;16.38;10.10;;;;;;;20.69;92.55;93239.59;5115033;27;20052;-80
2023/09/25 07:27:56;;;;;;;16.60;10.55;;;;;;;20.62;92.61;93235.75;5114478;27;20108;-78
2023/09/25 07:30:23;;;;;;;16.05;9.60;;;;;;;20.61;94.00;93242.00;5116582;27;20050;-78
2023/09/25 07:32:50;;;;;;;17.52;10.25;;;;;;;20.72;93.26;93240.09;5114308;27;20500;-78
2023/09/25 07:35:18;;;;;;;17.30;10.73;;;;;;;20.80;94.93;93222.06;5113845;27;20059;-81
2023/09/25 07:37:47;;;;;;;16.10;10.70;;;;;;;20.70;94.57;93248.22;5115036;27;20086;-78
2023/09/25 07:40:14;;;;;;;18.95;10.55;;;;;;;20.80;95.33;93244.75;5114561;27;20043;-77
2023/09/25 07:42:43;;;;;;;18.38;9.98;;;;;;;20.96;91.36;93248.84;5114373;27;20085;-77
2023/09/25 07:45:12;;;;;;;13.60;8.65;;;;;;;20.76;89.54;93241.13;5114538;27;20162;-77
2023/09/25 07:47:39;;;;;;;13.43;9.15;;;;;;;20.71;90.79;93247.16;5114220;27;20495;-78
2023/09/25 07:50:10;;;;;;;14.23;9.77;;;;;;;20.83;90.30;93241.63;5115822;27;20050;-77
2023/09/25 07:52:38;;;;;;;15.63;10.18;;;;;;;20.76;90.83;93246.34;5123535;27;20050;-78
2023/09/25 07:55:07;;;;;;;14.93;9.80;;;;;;;20.73;89.08;93257.34;5111818;27;20052;-80
2023/09/25 07:57:36;;;;;;;15.80;10.13;;;;;;;21.03;89.57;93251.13;5111928;27;20162;-77
2023/09/25 08:00:10;;;;;;;17.08;10.18;;;;;;;20.68;89.82;93232.03;5115577;27;20436;-78
2023/09/25 08:02:41;;;;;;;16.60;10.85;;;;;;;20.84;90.47;93256.22;5111422;27;20055;-76
2023/09/25 08:05:10;;;;;;;17.00;9.63;;;;;;;20.76;90.44;93251.56;5115193;27;20051;-78
2023/09/25 08:07:37;;;;;;;14.77;9.60;;;;;;;20.76;90.09;93256.78;5117173;27;20472;-79
2023/09/25 08:10:23;;;;;;;12.90;10.18;;;;;;;20.91;89.17;93248.09;5111254;27;20048;-77
2023/09/25 08:12:49;;;;;;;;;;;;;;;20.80;88.27;93256.00;5110068;27;20044;-77
2023/09/25 08:15:18;;;;;;;16.10;9.40;;;;;;;20.55;90.28;93260.31;5112080;27;19923;-81
2023/09/25 08:17:46;;;;;;;14.93;9.77;;;;;;;20.46;89.72;93280.19;5115282;27;20535;-78
2023/09/25 08:20:20;;;;;;;17.50;10.13;;;;;;;20.35;88.60;93261.22;5114643;27;20056;-77
2023/09/25 08:22:47;;;;;;;14.93;10.23;;;;;;;20.72;90.24;93256.56;5111506;27;20058;-76
2023/09/25 08:25:14;;;;;;;11.73;8.40;;;;;;;20.89;87.02;93247.59;5116300;27;20047;-77
2023/09/25 08:27:41;;;;;;;13.48;9.68;;;;;;;20.95;87.24;93252.50;5118811;27;20047;-77
2023/09/25 08:30:09;;;;;;;13.95;9.32;;;;;;;20.79;87.14;93237.97;5115220;27;20054;-77
2023/09/25 08:32:38;;;;;;;14.82;9.18;;;;;;;20.85;85.75;93252.56;5109890;27;20551;-78
2023/09/25 08:35:06;;;;;;;12.18;8.32;;;;;;;20.73;85.88;93252.13;5110996;27;20051;-77
2023/09/25 08:37:33;;;;;;;11.30;8.25;;;;;;;21.03;86.73;93256.38;5112891;27;20370;-78
2023/09/25 08:40:00;;;;;;;11.05;8.00;;;;;;;21.12;84.01;93251.31;5110663;27;20052;-77
2023/09/25 08:42:27;;;;;;;10.65;7.28;;;;;;;21.33;79.81;93269.41;5110417;27;20051;-78
2023/09/25 08:44:56;;;;;;;14.00;7.20;;;;;;;21.58;80.63;93267.63;5110597;27;20092;-77
2023/09/25 08:47:23;;;;;;;11.35;7.18;;;;;;;21.71;78.13;93243.44;5110661;27;20044;-79
2023/09/25 08:49:52;;;;;;;11.38;7.07;;;;;;;21.69;78.25;93242.16;5110280;27;20040;-78
2023/09/25 08:52:21;;;;;;;11.73;7.20;;;;;;;21.48;77.60;93266.66;5113877;27;20044;-77
2023/09/25 08:54:48;;;;;;;9.32;6.88;;;;;;;21.67;76.82;93267.78;5110156;27;20046;-77
2023/09/25 08:57:16;;;;;;;8.30;6.38;;;;;;;21.66;75.68;93245.34;5110498;27;20465;-76
2023/09/25 08:59:46;;;;;;;10.05;6.38;;;;;;;21.91;74.50;93259.97;5109771;27;20510;-76
2023/09/25 09:02:14;;;;;;;9.98;6.20;;;;;;;22.33;72.43;93265.50;5115610;27;20048;-76
2023/09/25 09:04:42;;;;;;;7.18;5.57;;;;;;;22.62;72.36;93261.19;5109920;27;20050;-76
2023/09/25 09:07:11;;;;;;;7.28;5.13;;;;;;;23.06;69.69;93257.38;5109870;27;20051;-78
2023/09/25 09:09:40;;;;;;;9.77;4.85;;;;;;;23.44;68.63;93253.91;5116474;27;20050;-78
2023/09/25 09:12:08;;;;;;;7.15;4.18;;;;;;;23.52;64.65;93264.78;5111491;27;20093;-78
2023/09/25 09:14:36;;;;;;;6.63;4.00;;;;;;;23.14;61.85;93252.56;5111661;27;20075;-78
2023/09/25 09:17:05;;;;;;;7.05;3.78;;;;;;;23.17;63.39;93258.00;5111140;27;20525;-78
2023/09/25 09:19:37;;;;;;;6.25;3.63;;;;;;;23.03;62.64;93275.53;5111726;27;20132;-77
2023/09/25 09:22:06;;;;;;;8.15;3.65;;;;;;;23.15;63.62;93257.50;5112862;27;20048;-77
2023/09/25 09:24:35;;;;;;;6.28;4.20;;;;;;;23.13;65.56;93245.78;5113020;27;20051;-77
2023/09/25 09:27:07;;;;;;;7.43;4.00;;;;;;;23.12;66.22;93257.31;5112849;27;20093;-78
2023/09/25 09:29:37;;;;;;;9.40;3.40;;;;;;;23.09;63.33;93271.75;5109758;27;20076;-77
2023/09/25 09:32:05;;;;;;;7.90;4.38;;;;;;;23.32;65.96;93230.00;5112161;27;20538;-77
2023/09/25 09:34:33;;;;;;;8.80;4.78;;;;;;;23.54;57.86;93281.78;5115083;27;20051;-76
2023/09/25 09:37:00;;;;;;;6.68;3.35;;;;;;;22.84;64.69;93258.00;5117435;27;20054;-77
2023/09/25 09:39:34;;;;;;;7.35;4.20;;;;;;;22.89;66.25;93247.44;5120235;27;20051;-77
2023/09/25 09:42:05;;;;;;;8.48;4.07;;;;;;;22.80;66.96;93275.34;5114752;27;20134;-77
2023/09/25 09:44:32;;;;;;;8.65;4.50;;;;;;;22.65;67.64;93261.44;5115736;27;20420;-77
2023/09/25 09:47:04;;;;;;;8.00;4.18;;;;;;;22.30;70.59;93268.66;5115350;27;20077;-80
2023/09/25 09:49:33;;;;;;;7.47;4.10;;;;;;;22.36;68.85;93253.69;5116332;27;20050;-77
2023/09/25 09:52:02;;;;;;;6.18;3.38;;;;;;;22.80;68.21;93264.88;5120994;27;20529;-77
2023/09/25 09:54:32;;;;;;;5.43;3.35;;;;;;;22.67;65.95;93264.53;5117090;27;20083;-77
2023/09/25 09:57:00;;;;;;;7.63;4.20;;;;;;;22.59;64.40;93264.41;5115000;27;20092;-77
2023/09/25 09:59:28;;;;;;;6.35;2.90;;;;;;;22.72;62.26;93266.28;5113377;27;20509;-76
2023/09/25 10:01:57;;;;;;;8.07;3.97;;;;;;;23.15;62.33;93260.13;5109224;27;20043;-76
2023/09/25 10:04:24;;;;;;;6.90;3.38;;;;;;;23.17;61.80;93267.69;5108520;27;20068;-77
2023/09/25 10:06:52;;;;;;;7.15;4.20;;;;;;;23.16;63.89;93248.59;5119131;27;20047;-76
2023/09/25 10:09:20;;;;;;;8.30;3.90;;;;;;;23.20;62.48;93238.31;5114264;27;20051;-76
2023/09/25 10:11:48;;;;;;;7.90;3.90;;;;;;;23.04;63.77;93248.25;5109162;27;20039;-78
2023/09/25 10:14:21;;;;;;;5.05;2.88;;;;;;;22.99;64.72;93253.59;5108172;27;20541;-78
2023/09/25 10:17:10;;;;;;;5.32;3.28;;;;;;;23.14;65.36;93258.56;5109509;27;20054;-76
2023/09/25 10:19:49;;;;;;;8.95;4.32;;;;;;;23.09;59.50;93261.28;5108742;27;20055;-76
2023/09/25 10:22:21;;;;;;;7.95;2.45;;;;;;;23.19;60.14;93266.34;5112315;27;20395;-77
2023/09/25 10:24:54;;;;;;;5.45;2.80;;;;;;;23.05;58.97;93244.59;5109457;27;20044;-78
2023/09/25 10:27:20;;;;;;;5.72;3.13;;;;;;;22.95;62.81;93263.84;5108506;27;20044;-76
2023/09/25 10:30:11;;;;;;;6.47;2.97;;;;;;;22.80;61.76;93255.19;5108919;27;20121;-76
2023/09/25 10:32:41;;;;;;;5.68;2.80;;;;;;;22.72;62.23;93250.56;5105966;27;20062;-76
2023/09/25 10:35:43;;;;;;;5.28;2.88;;;;;;;23.08;60.04;93268.38;5111407;27;20063;-76
2023/09/25 10:38:12;;;;;;;10.13;4.15;;;;;;;23.25;60.73;93258.41;5109011;28;20054;-77
2023/09/25 10:40:43;;;;;;;6.72;2.80;;;;;;;23.25;57.11;93253.94;5117320;28;20054;-76
2023/09/25 10:43:10;;;;;;;6.28;2.47;;;;;;;23.64;57.76;93256.47;5111976;28;20652;-76
2023/09/25 10:45:38;;;;;;;6.10;2.95;;;;;;;23.48;53.80;93277.72;5109911;28;20047;-78
2023/09/25 10:48:07;;;;;;;4.75;2.35;;;;;;;23.61;55.41;93247.34;5115053;28;20070;-76
2023/09/25 10:50:37;;;;;;;5.25;2.53;;;;;;;23.78;57.08;93253.84;5112004;28;20094;-76
2023/09/25 10:53:05;;;;;;;5.07;2.50;;;;;;;23.88;57.90;93262.28;5117244;28;20138;-77
2023/09/25 10:55:33;;;;;;;3.42;2.42;;;;;;;23.71;58.92;93267.34;5114552;28;20091;-75
2023/09/25 10:58:00;;;;;;;4.05;2.53;;;;;;;23.69;55.39;93270.25;5116497;28;20563;-76
2023/09/25 11:00:28;;;;;;;3.83;2.22;;;;;;;23.98;55.93;93273.66;5108911;28;20048;-77
2023/09/25 11:02:55;;;;;;;4.05;2.20;;;;;;;23.65;56.28;93282.38;5108108;28;20048;-81
2023/09/25 11:05:24;;;;;;;3.42;2.40;;;;;;;23.29;56.53;93273.25;5108281;28;20039;-78
2023/09/25 11:07:51;;;;;;;7.63;2.60;;;;;;;23.79;57.06;93265.88;5109256;28;20056;-77
2023/09/25 11:10:18;;;;;;;4.97;2.47;;;;;;;23.83;52.93;93277.38;5112683;28;20055;-76
2023/09/25 11:12:47;;;;;;;4.32;1.95;;;;;;;23.91;54.58;93274.03;5106882;28;20088;-77
2023/09/25 11:15:17;;;;;;;3.75;2.20;;;;;;;23.90;53.93;93262.00;5108596;28;20422;-76
2023/09/25 11:17:46;;;;;;;6.78;2.30;;;;;;;24.20;51.40;93270.34;5117668;28;20040;-77
2023/09/25 11:20:15;;;;;;;10.15;2.55;;;;;;;24.20;53.73;93238.09;5117227;27;20051;-78
2023/09/25 11:22:43;;;;;;;4.85;2.30;;;;;;;24.05;55.73;93252.25;5108808;27;20047;-76